Time;durP1;ratioP1;P1;durP2;ratioP2;P2;SDS_P1;SDS_P2;PMS_P1;PMS_P2;Temp;Humidity;BMP_temperature;BMP_pressure;BME280_temperature;BME280_humidity;BME280_pressure;Samples;Min_cycle;Max_cycle;Signal;HPM_P1;HPM_P2
2023/04/16 00:00:51;;;;;;;55.15;18.90;;;8.80;99.90;;;;;;5016442;28;20096;-84
2023/04/16 00:03:17;;;;;;;48.13;17.17;;;8.80;99.90;;;;;;5016676;28;20103;-84
2023/04/16 00:05:42;;;;;;;52.53;17.65;;;8.70;99.90;;;;;;5034365;28;20068;-83
2023/04/16 00:08:08;;;;;;;45.97;17.13;;;8.80;99.90;;;;;;5016595;28;20095;-84
2023/04/16 00:10:35;;;;;;;48.00;17.70;;;8.80;99.90;;;;;;5016433;28;20037;-83
2023/04/16 00:13:00;;;;;;;43.63;17.05;;;8.70;99.90;;;;;;5034159;28;20064;-83
2023/04/16 00:15:26;;;;;;;60.25;18.77;;;8.80;99.90;;;;;;5016751;28;20482;-84
2023/04/16 00:17:52;;;;;;;49.33;18.40;;;8.70;99.90;;;;;;5016717;28;20519;-84
2023/04/16 00:20:19;;;;;;;49.63;17.65;;;8.80;99.90;;;;;;5016604;28;20103;-83
2023/04/16 00:22:45;;;;;;;48.95;18.67;;;8.70;99.90;;;;;;5033979;28;20107;-83
2023/04/16 00:25:10;;;;;;;56.05;18.52;;;8.80;99.90;;;;;;5033885;28;20045;-84
2023/04/16 00:27:36;;;;;;;58.00;20.60;;;8.70;99.90;;;;;;5016086;28;20500;-83
2023/04/16 00:30:02;;;;;;;48.28;17.63;;;8.80;99.90;;;;;;5033742;28;20497;-83
2023/04/16 00:32:29;;;;;;;58.58;18.63;;;8.70;99.90;;;;;;5016002;28;20052;-83
2023/04/16 00:34:54;;;;;;;52.85;18.52;;;8.80;99.90;;;;;;5033996;28;20041;-84
2023/04/16 00:37:20;;;;;;;54.63;18.13;;;8.70;99.90;;;;;;5033896;28;20069;-83
2023/04/16 00:39:46;;;;;;;59.05;18.80;;;8.70;99.90;;;;;;5015969;28;20547;-82
2023/04/16 00:42:11;;;;;;;53.00;19.02;;;8.70;99.90;;;;;;5016183;28;20049;-84
2023/04/16 00:44:37;;;;;;;55.85;17.77;;;8.70;99.90;;;;;;5016174;28;20053;-83
2023/04/16 00:47:03;;;;;;;58.83;20.42;;;8.80;99.90;;;;;;5033499;28;20511;-83
2023/04/16 00:49:30;;;;;;;53.10;20.50;;;8.70;99.90;;;;;;5033526;28;20045;-85
2023/04/16 00:51:55;;;;;;;48.67;19.25;;;8.80;99.90;;;;;;5015878;28;20405;-84
2023/04/16 00:54:21;;;;;;;43.42;18.42;;;8.70;99.90;;;;;;5016179;28;20049;-84
2023/04/16 00:56:47;;;;;;;47.20;20.80;;;8.70;99.90;;;;;;5033664;28;20447;-85
2023/04/16 00:59:13;;;;;;;53.80;21.45;;;8.70;99.90;;;;;;5015686;28;20444;-84
2023/04/16 01:01:38;;;;;;;65.47;21.55;;;8.70;99.90;;;;;;5015595;28;20077;-84
2023/04/16 01:04:05;;;;;;;52.38;22.23;;;8.70;99.90;;;;;;5035048;28;20540;-84
2023/04/16 01:06:31;;;;;;;56.28;22.63;;;8.70;99.90;;;;;;5037672;28;20045;-84
2023/04/16 01:08:57;;;;;;;65.07;23.00;;;8.70;99.90;;;;;;5037510;28;20048;-84
2023/04/16 01:11:23;;;;;;;56.67;19.02;;;8.70;99.90;;;;;;5037318;28;20128;-84
2023/04/16 01:13:49;;;;;;;52.47;18.73;;;8.70;99.90;;;;;;5019929;28;20508;-84
2023/04/16 01:16:14;;;;;;;58.72;19.55;;;8.70;99.90;;;;;;5037501;28;20472;-84
2023/04/16 01:18:40;;;;;;;54.30;21.13;;;8.60;99.90;;;;;;5037438;28;20432;-83
2023/04/16 01:21:06;;;;;;;64.75;21.98;;;8.60;99.90;;;;;;5037312;28;20136;-87
2023/04/16 01:23:32;;;;;;;62.38;20.80;;;8.60;99.90;;;;;;5037244;28;20044;-85
2023/04/16 01:25:57;;;;;;;63.60;21.60;;;8.60;99.90;;;;;;5037161;28;20413;-83
2023/04/16 01:28:23;;;;;;;63.15;21.67;;;8.60;99.90;;;;;;5019342;28;20052;-84
2023/04/16 01:30:48;;;;;;;54.22;19.48;;;8.60;99.90;;;;;;5037371;28;20045;-84
2023/04/16 01:33:14;;;;;;;60.38;22.65;;;8.60;99.90;;;;;;5037041;28;20040;-84
2023/04/16 01:35:40;;;;;;;61.65;20.77;;;8.60;99.90;;;;;;5019435;28;20128;-84
2023/04/16 01:38:07;;;;;;;66.82;20.80;;;8.60;99.90;;;;;;5019258;28;20128;-83
2023/04/16 01:40:34;;;;;;;59.05;21.65;;;8.60;99.90;;;;;;5037252;28;20489;-83
2023/04/16 01:43:00;;;;;;;52.72;21.40;;;8.60;99.90;;;;;;5036860;28;20129;-84
2023/04/16 01:45:25;;;;;;;68.18;21.70;;;8.60;99.90;;;;;;5019248;28;20128;-83
2023/04/16 01:47:51;;;;;;;57.50;19.85;;;8.60;99.90;;;;;;5019064;28;20069;-83
2023/04/16 01:50:19;;;;;;;72.32;22.25;;;8.60;99.90;;;;;;5036637;28;20125;-83
2023/04/16 01:52:46;;;;;;;70.03;24.42;;;8.60;99.90;;;;;;5036579;28;20072;-83
2023/04/16 01:55:12;;;;;;;59.03;22.08;;;8.50;99.90;;;;;;5036347;28;20049;-84
2023/04/16 01:57:38;;;;;;;62.88;21.42;;;8.60;99.90;;;;;;5018744;28;20117;-84
2023/04/16 02:00:04;;;;;;;57.03;21.48;;;8.60;99.90;;;;;;5036294;28;20144;-85
2023/04/16 02:02:30;;;;;;;57.17;21.00;;;8.60;99.90;;;;;;5019043;28;20060;-84
2023/04/16 02:04:56;;;;;;;55.03;18.75;;;8.60;99.90;;;;;;5036477;28;20175;-83
2023/04/16 02:07:23;;;;;;;63.95;22.83;;;8.60;99.90;;;;;;5036275;28;20136;-83
2023/04/16 02:09:51;;;;;;;55.80;18.88;;;8.60;99.90;;;;;;5036447;28;20156;-84
2023/04/16 02:12:17;;;;;;;64.53;21.52;;;8.60;99.90;;;;;;5036317;28;20041;-84
2023/04/16 02:14:43;;;;;;;76.70;23.42;;;8.60;99.90;;;;;;5036121;28;20056;-84
2023/04/16 02:17:08;;;;;;;50.33;18.33;;;8.70;99.90;;;;;;5018599;28;20443;-84
2023/04/16 02:19:34;;;;;;;50.13;18.58;;;8.70;99.90;;;;;;5036149;28;20040;-84
2023/04/16 02:22:00;;;;;;;58.83;20.25;;;8.70;99.90;;;;;;5018513;28;20038;-84
2023/04/16 02:24:26;;;;;;;55.47;19.63;;;8.70;99.90;;;;;;5018292;28;20417;-84
2023/04/16 02:26:52;;;;;;;54.65;19.00;;;8.70;99.90;;;;;;5036149;28;20080;-83
2023/04/16 02:29:18;;;;;;;56.45;19.10;;;8.70;99.90;;;;;;5036023;28;20096;-83
2023/04/16 02:31:45;;;;;;;55.00;19.85;;;8.60;99.90;;;;;;5018742;28;20051;-84
2023/04/16 02:34:11;;;;;;;54.45;19.05;;;8.60;99.90;;;;;;5035922;28;20045;-85
2023/04/16 02:36:37;;;;;;;62.75;20.60;;;8.60;99.90;;;;;;5038799;28;20045;-83
2023/04/16 02:39:03;;;;;;;61.38;19.65;;;8.60;99.90;;;;;;5055552;28;20512;-83
2023/04/16 02:41:29;;;;;;;59.33;17.95;;;8.60;99.90;;;;;;5055787;28;20048;-85
2023/04/16 02:43:55;;;;;;;55.33;19.42;;;8.60;99.90;;;;;;5055760;28;20036;-83
2023/04/16 02:46:21;;;;;;;50.30;18.48;;;8.60;99.90;;;;;;5037884;28;20476;-83
2023/04/16 02:48:46;;;;;;;63.67;19.33;;;8.60;99.90;;;;;;5037541;28;20480;-83
2023/04/16 02:51:15;;;;;;;59.00;18.73;;;8.60;99.90;;;;;;5037394;28;20060;-83
2023/04/16 02:53:44;;;;;;;46.42;18.27;;;8.60;99.90;;;;;;5055660;28;20102;-84
2023/04/16 02:56:11;;;;;;;60.67;20.25;;;8.60;99.90;;;;;;5055373;28;20052;-84
2023/04/16 02:58:36;;;;;;;50.72;18.35;;;8.60;99.90;;;;;;5055504;28;20041;-83
2023/04/16 03:01:02;;;;;;;63.88;19.35;;;8.50;99.90;;;;;;5055362;28;20052;-83
2023/04/16 03:03:27;;;;;;;65.40;18.63;;;8.60;99.90;;;;;;5055339;28;20045;-83
2023/04/16 03:06:00;;;;;;;66.18;19.90;;;8.60;99.90;;;;;;5037274;28;20056;-83
2023/04/16 03:08:26;;;;;;;49.88;19.83;;;8.60;99.90;;;;;;5055085;28;20083;-84
2023/04/16 03:10:52;;;;;;;59.55;19.23;;;8.60;99.90;;;;;;5055271;28;20080;-84
2023/04/16 03:13:17;;;;;;;46.70;16.42;;;8.60;99.90;;;;;;5055204;28;20041;-83
2023/04/16 03:15:48;;;;;;;63.10;18.08;;;8.60;99.90;;;;;;5037333;28;20044;-83
2023/04/16 03:18:14;;;;;;;49.85;18.67;;;8.60;99.90;;;;;;5055139;28;20132;-84
2023/04/16 03:20:39;;;;;;;54.63;19.58;;;8.50;99.90;;;;;;5036934;28;20128;-84
2023/04/16 03:23:05;;;;;;;54.10;17.80;;;8.50;99.90;;;;;;5054958;28;20473;-84
2023/04/16 03:25:31;;;;;;;56.45;18.90;;;8.60;99.90;;;;;;5037279;28;20041;-84
2023/04/16 03:27:56;;;;;;;51.45;18.08;;;8.60;99.90;;;;;;5054287;28;20037;-83
2023/04/16 03:30:22;;;;;;;58.55;19.33;;;8.60;99.90;;;;;;5054897;28;20049;-84
2023/04/16 03:32:47;;;;;;;49.50;15.90;;;8.50;99.90;;;;;;5036778;28;20041;-83
2023/04/16 03:35:13;;;;;;;58.60;17.02;;;8.50;99.90;;;;;;5037842;28;20045;-83
2023/04/16 03:37:39;;;;;;;61.40;19.00;;;8.60;99.90;;;;;;5054606;28;20041;-83
2023/04/16 03:40:06;;;;;;;60.90;17.38;;;8.60;99.90;;;;;;5054613;28;20052;-83
2023/04/16 03:42:31;;;;;;;62.72;18.25;;;8.50;99.90;;;;;;5036752;28;20060;-83
2023/04/16 03:44:58;;;;;;;50.10;16.33;;;8.50;99.90;;;;;;5036625;28;20045;-83
2023/04/16 03:47:23;;;;;;;50.40;15.65;;;8.60;99.90;;;;;;5036623;28;20094;-83
2023/04/16 03:49:49;;;;;;;51.05;15.88;;;8.60;99.90;;;;;;5054409;28;20053;-83
2023/04/16 03:52:16;;;;;;;50.63;16.88;;;8.60;99.90;;;;;;5054309;28;20057;-83
2023/04/16 03:54:41;;;;;;;55.53;18.52;;;8.60;99.90;;;;;;5036721;28;20138;-83
2023/04/16 03:57:07;;;;;;;58.72;18.60;;;8.60;99.90;;;;;;5036956;28;20480;-85
2023/04/16 03:59:33;;;;;;;52.08;18.05;;;8.60;99.90;;;;;;5054282;28;20052;-84
2023/04/16 04:01:58;;;;;;;59.28;17.45;;;8.60;99.90;;;;;;5054197;28;20045;-84
2023/04/16 04:04:24;;;;;;;46.30;16.75;;;8.60;99.90;;;;;;5036222;28;20468;-83
2023/04/16 04:06:49;;;;;;;59.50;18.35;;;8.50;99.90;;;;;;5054096;28;20044;-83
2023/04/16 04:09:15;;;;;;;47.95;17.42;;;8.60;99.90;;;;;;5036130;28;20139;-84
2023/04/16 04:11:41;;;;;;;61.92;18.92;;;8.50;99.90;;;;;;5036347;28;20124;-82
2023/04/16 04:14:07;;;;;;;55.55;17.20;;;8.50;99.90;;;;;;5036061;28;20041;-82
2023/04/16 04:16:34;;;;;;;51.85;18.00;;;8.50;99.90;;;;;;5053941;28;20057;-82
2023/04/16 04:19:00;;;;;;;57.63;19.63;;;8.50;99.90;;;;;;5053806;28;20032;-81
2023/04/16 04:21:30;;;;;;;62.80;19.48;;;8.50;99.90;;;;;;5053973;28;20435;-81
2023/04/16 04:23:56;;;;;;;57.65;17.55;;;8.50;99.90;;;;;;5053871;28;20045;-81
2023/04/16 04:26:21;;;;;;;54.10;17.88;;;8.50;99.90;;;;;;5053834;28;20098;-81
2023/04/16 04:28:47;;;;;;;65.35;17.67;;;8.40;99.90;;;;;;5035964;28;20048;-81
2023/04/16 04:31:13;;;;;;;50.40;17.17;;;8.40;99.90;;;;;;5053572;28;20063;-82
2023/04/16 04:33:39;;;;;;;52.70;18.13;;;8.40;99.90;;;;;;5052869;28;20079;-82
2023/04/16 04:36:04;;;;;;;49.10;16.05;;;8.50;99.90;;;;;;5053692;28;20060;-82
2023/04/16 04:38:30;;;;;;;48.20;16.30;;;8.40;99.90;;;;;;5052709;28;20135;-83
2023/04/16 04:40:56;;;;;;;64.30;18.67;;;8.40;99.90;;;;;;5053478;28;20045;-81
2023/04/16 04:43:22;;;;;;;55.42;16.55;;;8.40;99.90;;;;;;5035727;28;20083;-81
2023/04/16 04:45:48;;;;;;;48.28;18.55;;;8.40;99.90;;;;;;5053302;28;20099;-81
2023/04/16 04:48:14;;;;;;;56.38;18.65;;;8.40;99.90;;;;;;5035559;28;20044;-82
2023/04/16 04:50:40;;;;;;;59.75;19.13;;;8.40;99.90;;;;;;5035735;28;20500;-82
2023/04/16 04:53:09;;;;;;;61.95;19.63;;;8.50;99.90;;;;;;5053272;28;20110;-82
2023/04/16 04:55:36;;;;;;;66.47;18.27;;;8.40;99.90;;;;;;5053293;28;20132;-82
2023/04/16 04:58:03;;;;;;;59.72;18.38;;;8.50;99.90;;;;;;5035340;28;20041;-82
2023/04/16 05:00:29;;;;;;;62.45;19.52;;;8.50;99.90;;;;;;5053327;28;20106;-82
2023/04/16 05:02:55;;;;;;;73.07;20.00;;;8.50;99.90;;;;;;5053303;28;20048;-82
2023/04/16 05:05:21;;;;;;;55.97;17.70;;;8.50;99.90;;;;;;5035576;28;20052;-82
2023/04/16 05:07:46;;;;;;;60.60;20.10;;;8.50;99.90;;;;;;5053302;28;20045;-82
2023/04/16 05:10:12;;;;;;;67.68;21.13;;;8.50;99.90;;;;;;5035700;28;20048;-82
2023/04/16 05:12:38;;;;;;;57.10;20.65;;;8.50;99.90;;;;;;5053296;28;20049;-82
2023/04/16 05:15:05;;;;;;;53.85;18.70;;;8.50;99.90;;;;;;5053098;28;20049;-83
2023/04/16 05:17:30;;;;;;;54.58;18.50;;;8.50;99.90;;;;;;5053318;28;20045;-82
2023/04/16 05:19:56;;;;;;;47.42;16.73;;;8.50;99.90;;;;;;5052992;28;20052;-82
2023/04/16 05:22:21;;;;;;;47.65;17.88;;;8.60;99.90;;;;;;5053115;28;20044;-82
2023/04/16 05:24:47;;;;;;;53.72;18.77;;;8.60;99.90;;;;;;5053073;28;20096;-82
2023/04/16 05:27:12;;;;;;;59.55;20.27;;;8.60;99.90;;;;;;5035142;28;20055;-81
2023/04/16 05:29:38;;;;;;;50.60;20.20;;;8.60;99.90;;;;;;5053188;28;20076;-81
2023/04/16 05:32:04;;;;;;;48.22;19.02;;;8.60;99.90;;;;;;5053039;28;20053;-81
2023/04/16 05:34:30;;;;;;;51.13;19.02;;;8.70;99.90;;;;;;5035241;28;20045;-82
2023/04/16 05:36:55;;;;;;;41.13;18.25;;;8.70;99.90;;;;;;5052748;28;20049;-82
2023/04/16 05:39:21;;;;;;;52.13;16.63;;;8.70;99.90;;;;;;5034977;28;20543;-82
2023/04/16 05:41:47;;;;;;;53.72;16.65;;;8.70;99.90;;;;;;5034893;28;20045;-82
2023/04/16 05:44:14;;;;;;;49.58;18.05;;;8.70;99.90;;;;;;5053021;28;20041;-82
2023/04/16 05:46:39;;;;;;;48.15;17.55;;;8.70;99.90;;;;;;5034996;28;20408;-81
2023/04/16 05:49:05;;;;;;;54.92;17.05;;;8.70;99.90;;;;;;5052701;28;20053;-81
2023/04/16 05:51:32;;;;;;;36.72;15.70;;;8.80;99.90;;;;;;5056249;28;20120;-81
2023/04/16 05:53:57;;;;;;;46.88;15.65;;;8.70;99.90;;;;;;5038610;28;20461;-81
2023/04/16 05:56:24;;;;;;;47.00;17.00;;;8.80;99.90;;;;;;5056696;28;20588;-83
2023/04/16 05:58:49;;;;;;;53.10;16.60;;;8.80;99.90;;;;;;5056700;28;20048;-82
2023/04/16 06:01:15;;;;;;;63.80;19.10;;;8.80;99.90;;;;;;5056339;28;20063;-83
2023/04/16 06:03:41;;;;;;;57.55;18.73;;;8.90;99.90;;;;;;5056507;28;20033;-80
2023/04/16 06:06:07;;;;;;;51.30;15.45;;;8.90;99.90;;;;;;5056427;28;20049;-83
2023/04/16 06:08:33;;;;;;;52.17;16.50;;;8.90;99.90;;;;;;5056167;28;20461;-83
2023/04/16 06:10:59;;;;;;;48.22;15.35;;;8.90;99.90;;;;;;5056098;28;20064;-82
2023/04/16 06:13:24;;;;;;;50.92;16.58;;;8.90;99.90;;;;;;5056683;28;20119;-82
2023/04/16 06:15:50;;;;;;;69.22;18.33;;;9.00;99.90;;;;;;5038544;28;20041;-81
2023/04/16 06:18:18;;;;;;;49.28;14.90;;;9.00;99.90;;;;;;5038331;28;20469;-81
2023/04/16 06:20:43;;;;;;;45.70;15.30;;;9.00;99.90;;;;;;5038336;28;20068;-81
2023/04/16 06:23:09;;;;;;;46.25;17.15;;;9.00;99.90;;;;;;5055876;28;20102;-82
2023/04/16 06:25:35;;;;;;;47.45;17.55;;;9.00;99.90;;;;;;5056026;28;20128;-81
2023/04/16 06:28:00;;;;;;;48.25;16.35;;;9.00;99.90;;;;;;5056106;28;20465;-81
2023/04/16 06:30:26;;;;;;;48.38;16.88;;;9.10;99.90;;;;;;5055844;28;20083;-80
2023/04/16 06:32:52;;;;;;;62.63;17.50;;;9.10;99.90;;;;;;5055952;28;20036;-83
2023/04/16 06:35:19;;;;;;;47.58;16.73;;;9.10;99.90;;;;;;5055828;28;20052;-82
2023/04/16 06:37:45;;;;;;;49.15;18.10;;;9.10;99.90;;;;;;5055947;28;20073;-81
2023/04/16 06:40:11;;;;;;;52.90;17.92;;;9.10;99.90;;;;;;5037814;28;20115;-82
2023/04/16 06:42:36;;;;;;;54.35;18.52;;;9.10;99.90;;;;;;5055559;28;20179;-81
2023/04/16 06:45:02;;;;;;;49.42;16.92;;;9.20;99.90;;;;;;5055733;28;20078;-80
2023/04/16 06:47:28;;;;;;;57.25;16.73;;;9.30;99.90;;;;;;5037802;28;20048;-82
2023/04/16 06:49:54;;;;;;;46.83;15.07;;;9.30;99.90;;;;;;5027730;28;20477;-81
2023/04/16 06:52:19;;;;;;;40.53;15.15;;;9.30;99.90;;;;;;5025135;28;20054;-81
2023/04/16 06:54:45;;;;;;;47.22;17.50;;;9.40;99.90;;;;;;5017358;28;20500;-81
2023/04/16 06:57:11;;;;;;;44.50;16.65;;;9.40;99.90;;;;;;5035209;28;20485;-81
2023/04/16 06:59:36;;;;;;;43.80;16.00;;;9.50;99.90;;;;;;5017526;28;20041;-81
2023/04/16 07:02:02;;;;;;;43.40;16.27;;;9.50;99.90;;;;;;5034058;28;20049;-78
2023/04/16 07:04:27;;;;;;;45.95;16.45;;;9.50;99.90;;;;;;5034862;28;20497;-82
2023/04/16 07:06:53;;;;;;;42.65;15.85;;;9.50;99.90;;;;;;5017452;28;20524;-83
2023/04/16 07:09:19;;;;;;;43.53;15.73;;;9.50;99.90;;;;;;5035126;28;20033;-82
2023/04/16 07:11:44;;;;;;;43.33;15.75;;;9.60;99.90;;;;;;5016936;28;20057;-82
2023/04/16 07:14:10;;;;;;;44.88;15.98;;;9.70;99.90;;;;;;5017120;28;20049;-81
2023/04/16 07:16:36;;;;;;;50.65;15.95;;;9.70;99.90;;;;;;5034818;28;20037;-82
2023/04/16 07:19:02;;;;;;;50.50;16.25;;;9.80;99.90;;;;;;5034907;28;20045;-82
2023/04/16 07:21:28;;;;;;;58.13;18.83;;;9.80;99.90;;;;;;5034912;28;20041;-80
2023/04/16 07:23:54;;;;;;;53.28;18.38;;;9.70;99.90;;;;;;5034615;28;20500;-82
2023/04/16 07:26:20;;;;;;;54.53;17.08;;;9.80;99.90;;;;;;5016953;28;20037;-81
2023/04/16 07:28:45;;;;;;;47.75;16.13;;;9.80;99.90;;;;;;5034489;28;20075;-81
2023/04/16 07:31:11;;;;;;;46.97;17.20;;;9.90;99.90;;;;;;5034580;28;20053;-84
2023/04/16 07:33:37;;;;;;;52.50;17.05;;;9.90;99.90;;;;;;5034704;28;20045;-88
2023/04/16 07:36:03;;;;;;;46.58;17.13;;;10.00;99.90;;;;;;5034784;28;20045;-85
2023/04/16 07:38:28;;;;;;;51.42;16.00;;;10.00;99.90;;;;;;5034342;28;20045;-81
2023/04/16 07:40:55;;;;;;;44.03;17.20;;;10.00;99.90;;;;;;5016780;28;20057;-84
2023/04/16 07:43:21;;;;;;;50.67;18.90;;;10.10;99.90;;;;;;5034370;28;20041;-84
2023/04/16 07:45:47;;;;;;;41.20;16.58;;;10.10;99.90;;;;;;5034344;28;20049;-82
2023/04/16 07:48:12;;;;;;;62.08;17.58;;;10.10;99.90;;;;;;5017051;28;20056;-81
2023/04/16 07:50:38;;;;;;;59.42;17.55;;;10.10;99.90;;;;;;5026033;28;20045;-83
2023/04/16 07:53:06;;;;;;;51.78;17.48;;;10.10;99.90;;;;;;5016312;28;20053;-83
2023/04/16 07:55:32;;;;;;;58.47;16.65;;;10.20;99.90;;;;;;5016076;28;20054;-83
2023/04/16 07:57:57;;;;;;;48.80;16.27;;;10.10;99.90;;;;;;5016573;28;20168;-83
2023/04/16 08:00:23;;;;;;;54.75;16.95;;;10.20;99.90;;;;;;5033794;28;20041;-84
2023/04/16 08:02:49;;;;;;;64.18;19.08;;;10.20;99.90;;;;;;5016280;28;20160;-86
2023/04/16 08:05:14;;;;;;;47.90;15.90;;;10.20;99.90;;;;;;5033826;28;20045;-85
2023/04/16 08:07:40;;;;;;;43.33;16.27;;;10.20;99.90;;;;;;5033539;28;20042;-85
2023/04/16 08:10:06;;;;;;;42.58;15.52;;;10.30;99.90;;;;;;5033701;28;20064;-86
2023/04/16 08:12:32;;;;;;;49.00;17.92;;;10.30;99.90;;;;;;5033739;28;20052;-85
2023/04/16 08:14:57;;;;;;;42.65;16.35;;;10.30;99.90;;;;;;5033461;28;20057;-86
2023/04/16 08:17:23;;;;;;;53.40;17.85;;;10.40;99.90;;;;;;5033755;28;20077;-86
2023/04/16 08:19:49;;;;;;;49.92;18.30;;;10.40;99.90;;;;;;5033505;28;20216;-86
2023/04/16 08:22:14;;;;;;;38.45;15.38;;;10.40;99.90;;;;;;5033607;28;20049;-85
2023/04/16 08:24:40;;;;;;;48.35;16.58;;;10.40;99.90;;;;;;5016067;28;20392;-85
2023/04/16 08:27:06;;;;;;;38.78;16.75;;;10.40;99.90;;;;;;5033785;28;20106;-86
2023/04/16 08:29:32;;;;;;;38.55;14.88;;;10.40;99.90;;;;;;5033321;28;20046;-86
2023/04/16 08:31:58;;;;;;;37.42;16.75;;;10.50;99.90;;;;;;5033560;28;20049;-85
2023/04/16 08:34:24;;;;;;;50.53;16.60;;;10.60;99.90;;;;;;5033670;28;20304;-86
2023/04/16 08:36:49;;;;;;;48.15;17.13;;;10.60;99.90;;;;;;5015928;28;20045;-86
2023/04/16 08:39:15;;;;;;;44.60;16.30;;;10.60;99.90;;;;;;5015441;28;20450;-86
2023/04/16 08:41:44;;;;;;;38.25;14.82;;;10.60;99.90;;;;;;5015815;28;20092;-88
2023/04/16 08:44:23;;;;;;;41.42;14.45;;;10.60;99.90;;;;;;5033489;28;20049;-86
2023/04/16 08:46:53;;;;;;;34.92;14.75;;;10.70;99.90;;;;;;5033093;28;20049;-84
2023/04/16 08:49:19;;;;;;;48.30;16.95;;;10.70;99.90;;;;;;5015484;28;20446;-85
2023/04/16 08:51:55;;;;;;;47.40;16.55;;;10.70;99.90;;;;;;5033096;28;20061;-85
2023/04/16 08:54:38;;;;;;;43.25;15.18;;;10.70;99.90;;;;;;5033572;28;20072;-85
2023/04/16 08:57:05;;;;;;;;;;;10.80;99.90;;;;;;5019435;28;20128;-87
2023/04/16 08:59:32;;;;;;;44.25;17.17;;;10.80;99.90;;;;;;5033378;28;19968;-86
2023/04/16 09:02:00;;;;;;;44.72;16.23;;;10.80;99.90;;;;;;5033252;28;20049;-86
2023/04/16 09:04:27;;;;;;;44.92;17.73;;;10.80;99.90;;;;;;5032093;28;20041;-86
2023/04/16 09:06:56;;;;;;;49.40;16.80;;;10.90;99.90;;;;;;5031683;28;20056;-86
2023/04/16 09:09:22;;;;;;;44.97;17.23;;;10.90;99.90;;;;;;5031994;28;20129;-86
2023/04/16 09:11:55;;;;;;;50.83;16.30;;;11.00;99.90;;;;;;5032031;28;20046;-86
2023/04/16 09:14:21;;;;;;;52.30;19.13;;;11.00;99.90;;;;;;5032874;28;20477;-85
2023/04/16 09:16:47;;;;;;;49.70;18.13;;;11.00;99.90;;;;;;5032904;28;20049;-87
2023/04/16 09:19:14;;;;;;;50.28;17.63;;;10.90;99.90;;;;;;5032882;28;20076;-86
2023/04/16 09:21:41;;;;;;;44.25;18.25;;;10.90;99.90;;;;;;5032711;28;20128;-86
2023/04/16 09:24:08;;;;;;;51.60;18.13;;;10.90;99.90;;;;;;5032912;28;20052;-87
2023/04/16 09:26:34;;;;;;;49.67;16.48;;;11.00;99.90;;;;;;5035461;28;20132;-86
2023/04/16 09:29:00;;;;;;;48.58;18.55;;;11.00;99.90;;;;;;5038452;28;20559;-83
2023/04/16 09:31:26;;;;;;;53.08;18.02;;;11.00;99.90;;;;;;5056435;28;20048;-83
2023/04/16 09:34:05;;;;;;;53.95;19.23;;;11.10;99.90;;;;;;5056822;28;20045;-84
2023/04/16 09:36:31;;;;;;;41.78;17.77;;;11.10;99.90;;;;;;5056843;28;20037;-83
2023/04/16 09:38:57;;;;;;;44.78;16.60;;;11.10;99.90;;;;;;5056831;28;20037;-83
2023/04/16 09:41:28;;;;;;;34.67;16.13;;;11.20;99.90;;;;;;5056402;28;20080;-83
2023/04/16 09:43:56;;;;;;;38.97;16.92;;;11.20;99.90;;;;;;5056473;28;20455;-83
2023/04/16 09:46:23;;;;;;;36.70;17.05;;;11.20;99.90;;;;;;5056461;28;20106;-83
2023/04/16 09:48:48;;;;;;;37.20;17.08;;;11.20;99.90;;;;;;5038697;28;20049;-83
2023/04/16 09:51:16;;;;;;;37.22;15.32;;;11.20;99.90;;;;;;5056197;28;20051;-82
2023/04/16 09:53:42;;;;;;;39.25;18.40;;;11.20;99.90;;;;;;5056137;28;20492;-82
2023/04/16 09:56:08;;;;;;;52.95;18.30;;;11.10;99.90;;;;;;5056376;28;20051;-82
2023/04/16 09:58:37;;;;;;;44.33;17.80;;;11.00;99.90;;;;;;5038426;28;20053;-83
2023/04/16 10:01:08;;;;;;;43.95;18.13;;;11.10;99.90;;;;;;5056375;28;20056;-82
2023/04/16 10:03:35;;;;;;;48.15;19.02;;;11.10;99.90;;;;;;5038512;28;20170;-85
2023/04/16 10:06:15;;;;;;;40.78;16.98;;;11.10;99.90;;;;;;5056107;28;20049;-84
2023/04/16 10:08:50;;;;;;;40.60;17.33;;;11.20;99.90;;;;;;5055982;28;20045;-83
2023/04/16 10:11:17;;;;;;;41.05;18.85;;;11.20;99.90;;;;;;5038075;28;20123;-83
2023/04/16 10:13:43;;;;;;;46.05;17.27;;;11.20;99.90;;;;;;5055616;28;20514;-82
2023/04/16 10:16:09;;;;;;;40.42;18.80;;;11.30;99.90;;;;;;5038350;28;20052;-84
2023/04/16 10:18:39;;;;;;;41.83;17.73;;;11.30;99.90;;;;;;5055802;28;20056;-81
2023/04/16 10:21:05;;;;;;;44.83;18.98;;;11.30;99.90;;;;;;5055929;28;20055;-83
2023/04/16 10:23:32;;;;;;;45.92;18.92;;;11.20;99.90;;;;;;5055993;28;20098;-83
2023/04/16 10:25:59;;;;;;;41.47;18.00;;;11.30;99.90;;;;;;5037915;28;20052;-82
2023/04/16 10:28:27;;;;;;;42.33;17.83;;;11.30;99.90;;;;;;5037508;28;20052;-83
2023/04/16 10:30:55;;;;;;;48.10;18.27;;;11.20;99.90;;;;;;5055983;28;20045;-85
2023/04/16 10:33:22;;;;;;;44.65;17.75;;;11.20;99.90;;;;;;5055529;28;20045;-83
2023/04/16 10:35:52;;;;;;;47.30;18.58;;;11.10;99.90;;;;;;5037836;28;20128;-82
2023/04/16 10:38:25;;;;;;;45.85;17.17;;;11.30;99.90;;;;;;5055205;28;20076;-81
2023/04/16 10:41:01;;;;;;;39.28;15.77;;;11.30;99.90;;;;;;5055415;28;20480;-86
2023/04/16 10:43:28;;;;;;;34.88;14.45;;;11.20;99.90;;;;;;5037819;28;20052;-84
2023/04/16 10:45:54;;;;;;;32.20;14.40;;;11.30;99.90;;;;;;5021260;28;20042;-85
2023/04/16 10:48:20;;;;;;;40.35;15.68;;;11.40;99.90;;;;;;5009226;28;20106;-88
2023/04/16 10:50:56;;;;;;;38.17;16.25;;;11.40;99.90;;;;;;5015399;28;20044;-84
2023/04/16 10:53:25;;;;;;;39.97;15.65;;;11.40;99.90;;;;;;4997858;28;20525;-85
2023/04/16 10:56:03;;;;;;;39.17;16.10;;;11.50;99.90;;;;;;5015471;28;20053;-84
2023/04/16 10:58:35;;;;;;;38.90;16.95;;;11.60;99.90;;;;;;5015216;28;20081;-83
2023/04/16 11:01:15;;;;;;;45.42;16.92;;;11.60;99.90;;;;;;5015342;28;20088;-84
2023/04/16 11:03:47;;;;;;;37.60;15.93;;;11.60;99.90;;;;;;5015332;28;20129;-84
2023/04/16 11:06:16;;;;;;;38.78;17.17;;;11.60;99.90;;;;;;5015522;28;20143;-83
2023/04/16 11:08:44;;;;;;;45.60;18.05;;;11.70;99.90;;;;;;5015427;28;20046;-85
2023/04/16 11:11:11;;;;;;;42.00;17.77;;;11.80;99.90;;;;;;5015282;28;20085;-84
2023/04/16 11:13:37;;;;;;;42.22;17.63;;;11.80;99.90;;;;;;5013831;28;20042;-81
2023/04/16 11:16:04;;;;;;;40.78;17.05;;;11.80;99.90;;;;;;4995909;28;20469;-81
2023/04/16 11:18:30;;;;;;;34.92;15.73;;;11.90;99.90;;;;;;5015220;28;20034;-81
2023/04/16 11:20:56;;;;;;;38.13;15.88;;;12.00;99.90;;;;;;4997016;28;20046;-81
2023/04/16 11:23:22;;;;;;;29.08;15.52;;;12.10;99.90;;;;;;5014701;28;20482;-81
2023/04/16 11:25:50;;;;;;;38.90;15.90;;;12.20;99.90;;;;;;5014882;28;20050;-81
2023/04/16 11:28:16;;;;;;;39.42;15.50;;;12.30;99.90;;;;;;5014675;28;20440;-81
2023/04/16 11:30:41;;;;;;;35.03;15.55;;;12.30;99.90;;;;;;4996814;28;20521;-82
2023/04/16 11:33:10;;;;;;;39.22;16.73;;;12.30;99.90;;;;;;5013914;28;20100;-82
2023/04/16 11:35:38;;;;;;;35.55;17.15;;;12.40;99.90;;;;;;5014692;28;20053;-82
2023/04/16 11:38:07;;;;;;;39.92;15.40;;;12.50;99.90;;;;;;5014708;28;20048;-82
2023/04/16 11:40:33;;;;;;;37.25;16.80;;;12.50;99.90;;;;;;5014541;28;20034;-82
2023/04/16 11:43:12;;;;;;;43.00;15.45;;;12.50;99.90;;;;;;4996872;28;20050;-79
2023/04/16 11:45:38;;;;;;;39.60;15.77;;;12.50;99.90;;;;;;5014389;28;20049;-84
2023/04/16 11:48:04;;;;;;;37.67;16.65;;;12.50;99.90;;;;;;5014087;28;20045;-84
2023/04/16 11:50:29;;;;;;;40.83;15.30;;;12.50;99.90;;;;;;5025070;28;20045;-81
2023/04/16 11:53:02;;;;;;;30.20;14.05;;;12.50;99.90;;;;;;4998990;28;20065;-84
2023/04/16 11:55:28;;;;;;;32.00;13.40;;;12.50;99.90;;;;;;5014860;28;20077;-84
2023/04/16 11:57:54;;;;;;;31.00;15.13;;;12.40;99.90;;;;;;4996600;28;20088;-82
2023/04/16 12:00:21;;;;;;;32.97;16.45;;;12.50;99.90;;;;;;5012608;28;20042;-81
2023/04/16 12:02:51;;;;;;;31.58;15.55;;;12.50;99.90;;;;;;5014476;28;20084;-82
2023/04/16 12:05:33;;;;;;;37.08;15.55;;;12.50;99.90;;;;;;4996297;28;20089;-82
2023/04/16 12:08:05;;;;;;;34.67;13.97;;;12.70;99.90;;;;;;5014358;28;20049;-82
2023/04/16 12:10:36;;;;;;;36.88;14.77;;;12.60;99.90;;;;;;5014375;28;20113;-82
2023/04/16 12:13:12;;;;;;;30.00;13.60;;;12.70;99.90;;;;;;5014052;28;20046;-82
2023/04/16 12:15:49;;;;;;;30.05;14.90;;;12.70;99.90;;;;;;4995683;28;20486;-82
2023/04/16 12:18:21;;;;;;;26.45;13.63;;;12.70;99.90;;;;;;4996102;28;20107;-81
2023/04/16 12:20:48;;;;;;;32.73;14.80;;;12.70;99.90;;;;;;5013770;28;20466;-82
2023/04/16 12:23:23;;;;;;;36.63;16.25;;;12.80;99.90;;;;;;5014118;28;20042;-83
2023/04/16 12:25:50;;;;;;;40.63;15.55;;;12.70;99.90;;;;;;5014099;28;20401;-88
2023/04/16 12:28:33;;;;;;;36.83;16.25;;;12.60;99.90;;;;;;4995954;28;20046;-82
2023/04/16 12:31:00;;;;;;;32.63;14.73;;;12.50;99.90;;;;;;5013927;28;20099;-82